Time;durP1;ratioP1;P1;durP2;ratioP2;P2;SDS_P1;SDS_P2;PMS_P1;PMS_P2;Temp;Humidity;BMP_temperature;BMP_pressure;BME280_temperature;BME280_humidity;BME280_pressure;Samples;Min_cycle;Max_cycle;Signal;HPM_P1;HPM_P2
2024/04/18 00:01:13;;;;;;;14.05;6.75;;;9.30;91.50;;;;;;5380892;26;20000;-78
2024/04/18 00:03:39;;;;;;;15.73;7.22;;;9.20;91.60;;;;;;5351560;26;20050;-78
2024/04/18 00:06:05;;;;;;;16.00;8.40;;;9.20;91.60;;;;;;5378163;26;20012;-79
2024/04/18 00:08:30;;;;;;;14.77;7.25;;;9.20;91.70;;;;;;5382585;26;20000;-78
2024/04/18 00:10:58;;;;;;;13.90;7.53;;;9.10;91.80;;;;;;5351814;26;19996;-78
2024/04/18 00:13:23;;;;;;;16.38;7.90;;;9.10;91.90;;;;;;5382594;26;20008;-78
2024/04/18 00:15:49;;;;;;;17.08;7.22;;;9.00;92.00;;;;;;5382066;26;20007;-78
2024/04/18 00:18:15;;;;;;;13.55;7.70;;;9.00;92.20;;;;;;5382230;26;20015;-76
2024/04/18 00:20:41;;;;;;;14.10;7.53;;;9.00;92.40;;;;;;5371883;26;20350;-78
2024/04/18 00:23:07;;;;;;;15.00;7.55;;;9.00;92.50;;;;;;5376217;26;20004;-78
2024/04/18 00:25:32;;;;;;;13.80;7.03;;;9.00;92.60;;;;;;5382291;26;20010;-77
2024/04/18 00:27:58;;;;;;;14.73;7.38;;;9.00;92.60;;;;;;5382075;26;19996;-76
2024/04/18 00:30:24;;;;;;;15.02;7.13;;;9.00;92.80;;;;;;5351795;26;20000;-77
2024/04/18 00:32:50;;;;;;;12.73;6.95;;;9.00;92.80;;;;;;5382460;26;20000;-78
2024/04/18 00:35:16;;;;;;;14.40;7.63;;;9.00;92.90;;;;;;5382956;26;20010;-78
2024/04/18 00:37:42;;;;;;;14.23;6.80;;;9.00;92.90;;;;;;5363701;26;20438;-78
2024/04/18 00:40:08;;;;;;;13.15;7.40;;;9.00;92.90;;;;;;5376226;26;20000;-78
2024/04/18 00:42:34;;;;;;;13.25;7.35;;;9.00;92.90;;;;;;5351223;26;20081;-77
2024/04/18 00:45:00;;;;;;;14.65;7.38;;;8.90;92.90;;;;;;5381711;26;20004;-78
2024/04/18 00:47:26;;;;;;;20.63;7.28;;;8.90;93.00;;;;;;5329526;26;20012;-79
2024/04/18 00:49:52;;;;;;;15.68;9.07;;;8.90;93.10;;;;;;5369007;26;20010;-78
2024/04/18 00:52:20;;;;;;;13.55;7.20;;;8.90;93.20;;;;;;5357874;26;19996;-79
2024/04/18 00:54:46;;;;;;;;;;;8.80;93.30;;;;;;5381645;26;20008;-78
2024/04/18 00:57:13;;;;;;;19.80;8.88;;;8.80;92.90;;;;;;5374863;26;20010;-78
2024/04/18 00:59:39;;;;;;;17.85;7.00;;;8.70;93.40;;;;;;5381454;26;20000;-77
2024/04/18 01:02:05;;;;;;;14.70;8.35;;;8.70;93.50;;;;;;5381376;26;20007;-78
2024/04/18 01:04:32;;;;;;;15.73;7.80;;;8.60;93.70;;;;;;5381810;26;20011;-78
2024/04/18 01:06:57;;;;;;;13.80;8.27;;;8.60;93.80;;;;;;5382531;26;19996;-79
2024/04/18 01:09:23;;;;;;;16.05;8.02;;;8.60;93.90;;;;;;5381553;26;19996;-78
2024/04/18 01:11:49;;;;;;;21.50;7.50;;;8.60;94.00;;;;;;5379953;26;20036;-78
2024/04/18 01:14:15;;;;;;;17.38;7.47;;;8.60;94.10;;;;;;5375622;26;20453;-79
2024/04/18 01:16:41;;;;;;;15.05;7.43;;;8.60;94.10;;;;;;5381335;26;20000;-78
2024/04/18 01:19:16;;;;;;;16.15;6.65;;;8.50;94.20;;;;;;5350144;26;20016;-78
2024/04/18 01:21:41;;;;;;;11.43;7.15;;;8.50;94.30;;;;;;5370006;26;20000;-79
2024/04/18 01:24:12;;;;;;;13.00;7.90;;;8.50;94.30;;;;;;5349950;26;20066;-78
2024/04/18 01:26:38;;;;;;;17.13;7.00;;;8.50;94.50;;;;;;5381453;26;20027;-77
2024/04/18 01:29:04;;;;;;;20.55;8.40;;;8.40;94.50;;;;;;5345321;26;21023;-78
2024/04/18 01:31:29;;;;;;;16.58;6.70;;;8.40;94.60;;;;;;5379603;26;20010;-77
2024/04/18 01:33:57;;;;;;;14.45;7.60;;;8.50;94.60;;;;;;5381349;26;20059;-78
2024/04/18 01:36:23;;;;;;;11.00;6.65;;;8.50;94.50;;;;;;5381466;26;20012;-79
2024/04/18 01:38:49;;;;;;;13.52;8.15;;;8.50;94.40;;;;;;5381155;26;20008;-79
2024/04/18 01:41:17;;;;;;;14.73;6.35;;;8.50;94.30;;;;;;5380610;26;20838;-78
2024/04/18 01:43:43;;;;;;;12.25;5.95;;;8.50;94.20;;;;;;5372562;26;20001;-79
2024/04/18 01:46:09;;;;;;;11.18;7.05;;;8.50;94.10;;;;;;5332096;26;20485;-79
2024/04/18 01:48:35;;;;;;;13.15;7.30;;;8.50;94.10;;;;;;5368430;26;20007;-79
2024/04/18 01:51:04;;;;;;;12.32;6.03;;;8.50;94.10;;;;;;5359252;26;19996;-78
2024/04/18 01:53:30;;;;;;;10.98;6.18;;;8.60;94.10;;;;;;5350111;26;20000;-77
2024/04/18 01:55:56;;;;;;;16.35;6.72;;;8.60;94.00;;;;;;5332232;26;20004;-79
2024/04/18 01:58:22;;;;;;;17.60;6.90;;;8.60;93.90;;;;;;5380804;26;20015;-79
2024/04/18 02:00:48;;;;;;;14.40;6.63;;;8.60;93.80;;;;;;5355976;26;20004;-79
2024/04/18 02:03:14;;;;;;;11.77;5.45;;;8.60;93.80;;;;;;5343595;26;20034;-78
2024/04/18 02:05:39;;;;;;;11.85;6.40;;;8.70;93.90;;;;;;5347332;26;19997;-78
2024/04/18 02:08:05;;;;;;;18.65;7.30;;;8.70;93.90;;;;;;5380254;26;20007;-78
2024/04/18 02:10:31;;;;;;;18.58;6.85;;;8.70;93.80;;;;;;5380191;26;20004;-77
2024/04/18 02:12:57;;;;;;;12.93;6.50;;;8.70;93.80;;;;;;5380397;26;20014;-77
2024/04/18 02:15:26;;;;;;;10.00;6.25;;;8.70;93.70;;;;;;5380819;26;20077;-79
2024/04/18 02:17:52;;;;;;;17.08;7.38;;;8.80;93.60;;;;;;5380475;26;20000;-77
2024/04/18 02:20:19;;;;;;;21.08;8.18;;;8.80;93.60;;;;;;5361338;26;20005;-78
2024/04/18 02:22:45;;;;;;;17.17;7.65;;;8.80;93.50;;;;;;5344277;26;20617;-78
2024/04/18 02:25:12;;;;;;;17.85;7.82;;;8.90;93.40;;;;;;5349720;26;20036;-79
2024/04/18 02:27:41;;;;;;;15.23;7.85;;;8.90;93.30;;;;;;5380275;26;20078;-80
2024/04/18 02:30:09;;;;;;;19.88;8.10;;;9.00;93.20;;;;;;5380749;26;20091;-77
2024/04/18 02:32:35;;;;;;;25.95;8.85;;;9.00;93.20;;;;;;5381683;26;20406;-79
2024/04/18 02:35:02;;;;;;;23.77;8.52;;;9.10;93.20;;;;;;5349948;26;20004;-76
2024/04/18 02:37:28;;;;;;;14.02;8.07;;;9.10;93.10;;;;;;5344802;26;20001;-79
2024/04/18 02:39:54;;;;;;;16.55;8.15;;;9.10;93.00;;;;;;5358387;26;19996;-79
2024/04/18 02:42:19;;;;;;;15.07;8.82;;;9.20;92.90;;;;;;5380744;26;20011;-77
2024/04/18 02:44:45;;;;;;;19.52;9.32;;;9.20;92.80;;;;;;5380144;26;20540;-79
2024/04/18 02:47:12;;;;;;;19.27;9.80;;;9.20;92.80;;;;;;5377559;26;20000;-78
2024/04/18 02:49:37;;;;;;;16.58;7.93;;;9.20;92.80;;;;;;5362635;26;20047;-78
2024/04/18 02:52:04;;;;;;;21.38;9.25;;;9.20;92.80;;;;;;5379833;26;20346;-77
2024/04/18 02:54:30;;;;;;;23.88;10.13;;;9.20;92.80;;;;;;5360738;26;20013;-78
2024/04/18 02:56:56;;;;;;;17.65;9.02;;;9.30;92.80;;;;;;5364739;26;20000;-78
2024/04/18 02:59:22;;;;;;;25.42;9.65;;;9.30;92.70;;;;;;5354120;26;20028;-77
2024/04/18 03:01:48;;;;;;;24.13;9.43;;;9.30;92.70;;;;;;5339206;26;19996;-77
2024/04/18 03:04:14;;;;;;;18.20;9.70;;;9.40;92.70;;;;;;5383031;26;20437;-79
2024/04/18 03:06:40;;;;;;;19.67;9.60;;;9.50;92.60;;;;;;5383697;26;20007;-77
2024/04/18 03:09:06;;;;;;;20.20;9.70;;;9.50;92.50;;;;;;5328062;26;20008;-77
2024/04/18 03:11:32;;;;;;;21.10;9.93;;;9.60;92.40;;;;;;5384164;26;20056;-77
2024/04/18 03:14:00;;;;;;;18.63;10.30;;;9.70;92.30;;;;;;5383824;26;20001;-79
2024/04/18 03:16:27;;;;;;;12.38;8.65;;;9.70;92.10;;;;;;5323361;26;20004;-77
2024/04/18 03:18:54;;;;;;;18.20;9.35;;;9.70;92.40;;;;;;5351857;26;20479;-78
2024/04/18 03:21:19;;;;;;;15.77;8.55;;;9.70;91.90;;;;;;5340856;26;20476;-78
2024/04/18 03:23:45;;;;;;;16.33;9.75;;;9.70;92.00;;;;;;5382960;26;19996;-78
2024/04/18 03:26:11;;;;;;;21.50;10.55;;;9.70;91.70;;;;;;5377384;26;20007;-78
2024/04/18 03:28:37;;;;;;;20.13;11.48;;;9.60;91.70;;;;;;5363882;26;20345;-78
2024/04/18 03:31:03;;;;;;;13.52;8.75;;;9.60;91.70;;;;;;5371876;26;20021;-77
2024/04/18 03:33:29;;;;;;;21.90;11.68;;;9.50;91.70;;;;;;5347964;26;20001;-78
2024/04/18 03:35:55;;;;;;;14.27;10.98;;;9.50;91.70;;;;;;5371103;26;20011;-79
2024/04/18 03:38:20;;;;;;;13.95;10.23;;;9.40;92.10;;;;;;5382921;26;20051;-79
2024/04/18 03:40:56;;;;;;;21.63;10.95;;;9.40;91.90;;;;;;5364165;26;20012;-78
2024/04/18 03:43:22;;;;;;;17.02;12.40;;;9.40;92.00;;;;;;5380940;26;20768;-78
2024/04/18 03:46:00;;;;;;;20.88;11.13;;;9.30;92.10;;;;;;5380860;26;20004;-78
2024/04/18 03:48:27;;;;;;;24.35;12.50;;;9.30;92.10;;;;;;5348356;26;20333;-79
2024/04/18 03:50:52;;;;;;;22.65;12.00;;;9.40;92.10;;;;;;5382613;26;19997;-78
2024/04/18 03:53:19;;;;;;;20.73;12.48;;;9.40;92.30;;;;;;5382566;26;20008;-78
2024/04/18 03:55:44;;;;;;;22.05;13.63;;;9.40;92.40;;;;;;5382361;26;20000;-79
2024/04/18 03:58:10;;;;;;;19.58;12.73;;;9.40;92.60;;;;;;5367258;26;20001;-77
2024/04/18 04:00:36;;;;;;;21.48;12.55;;;9.40;92.60;;;;;;5359296;26;19997;-78
2024/04/18 04:03:02;;;;;;;18.80;11.20;;;9.50;92.50;;;;;;5351204;26;20114;-79
2024/04/18 04:05:28;;;;;;;16.98;11.00;;;9.50;92.50;;;;;;5381998;26;20500;-78
2024/04/18 04:07:54;;;;;;;19.45;12.55;;;9.50;92.50;;;;;;5382278;26;20011;-78
2024/04/18 04:10:20;;;;;;;18.98;11.57;;;9.50;92.50;;;;;;5383293;26;19996;-78
2024/04/18 04:12:45;;;;;;;21.88;12.85;;;9.60;92.40;;;;;;5382232;26;19996;-79
2024/04/18 04:15:11;;;;;;;24.95;13.45;;;9.60;92.50;;;;;;5382226;26;20069;-79
2024/04/18 04:17:37;;;;;;;21.27;13.75;;;9.60;92.50;;;;;;5324059;26;19997;-78
2024/04/18 04:20:03;;;;;;;23.52;13.63;;;9.60;92.60;;;;;;5380767;26;20004;-79
2024/04/18 04:22:29;;;;;;;26.50;12.65;;;9.60;92.50;;;;;;5372877;26;20372;-78
2024/04/18 04:24:55;;;;;;;20.00;12.45;;;9.70;92.70;;;;;;5381916;26;20381;-78
2024/04/18 04:27:21;;;;;;;22.02;13.68;;;9.80;92.70;;;;;;5381989;26;20000;-77
2024/04/18 04:29:47;;;;;;;22.33;13.98;;;9.80;92.50;;;;;;5381529;26;20358;-79
2024/04/18 04:32:22;;;;;;;18.63;12.93;;;9.80;92.50;;;;;;5368955;26;20438;-78
2024/04/18 04:34:51;;;;;;;19.15;13.80;;;9.90;92.40;;;;;;5377924;26;20433;-78
2024/04/18 04:37:18;;;;;;;16.92;13.13;;;10.00;92.30;;;;;;5350887;26;19996;-78
2024/04/18 04:39:44;;;;;;;20.58;13.73;;;10.10;92.20;;;;;;5381334;26;20341;-79
2024/04/18 04:42:10;;;;;;;22.73;13.68;;;10.20;92.20;;;;;;5381737;26;20000;-78
2024/04/18 04:44:38;;;;;;;23.88;13.35;;;10.20;92.00;;;;;;5378063;26;20004;-79
2024/04/18 04:47:04;;;;;;;18.98;13.32;;;10.20;92.00;;;;;;5351681;26;20023;-78
2024/04/18 04:49:30;;;;;;;21.17;13.23;;;10.20;92.00;;;;;;5351338;26;20001;-77
2024/04/18 04:51:56;;;;;;;20.83;12.93;;;10.10;92.10;;;;;;5373135;26;20012;-78
2024/04/18 04:54:21;;;;;;;20.38;12.57;;;9.90;92.30;;;;;;5381105;26;20000;-79
2024/04/18 04:56:47;;;;;;;18.00;12.85;;;9.90;92.50;;;;;;5350211;26;20072;-78
2024/04/18 04:59:13;;;;;;;22.23;13.45;;;9.90;92.50;;;;;;5369912;26;20012;-79
2024/04/18 05:01:39;;;;;;;22.90;14.85;;;9.90;92.50;;;;;;5314068;26;19997;-79
2024/04/18 05:04:04;;;;;;;23.75;15.15;;;10.00;92.60;;;;;;5376071;26;20078;-79
2024/04/18 05:06:30;;;;;;;23.90;15.25;;;10.10;92.50;;;;;;5376012;26;20012;-78
2024/04/18 05:08:56;;;;;;;29.35;15.25;;;10.30;92.30;;;;;;5381251;26;19996;-78
2024/04/18 05:11:22;;;;;;;21.30;16.20;;;10.40;92.30;;;;;;5381645;26;20011;-79
2024/04/18 05:13:48;;;;;;;20.52;13.57;;;10.50;92.20;;;;;;5382181;26;20007;-79
2024/04/18 05:16:14;;;;;;;18.75;14.13;;;10.50;92.20;;;;;;5382769;26;19997;-78
2024/04/18 05:18:39;;;;;;;24.17;14.05;;;10.50;92.00;;;;;;5344973;26;20168;-77
2024/04/18 05:21:05;;;;;;;21.23;13.05;;;10.40;92.10;;;;;;5334489;26;20000;-80
2024/04/18 05:23:31;;;;;;;21.60;13.88;;;10.40;92.10;;;;;;5381142;26;20023;-80
2024/04/18 05:25:57;;;;;;;17.98;13.60;;;10.40;92.00;;;;;;5379284;26;20016;-78
2024/04/18 05:31:00;;;;;;;19.75;12.82;;;10.30;92.20;;;;;;5328493;26;20000;-79
2024/04/18 05:31:27;;;;;;;21.08;14.55;;;10.40;92.20;;;;;;5381274;26;20016;-79
2024/04/18 05:33:53;;;;;;;22.55;12.88;;;10.40;92.30;;;;;;5380964;26;20018;-78
2024/04/18 05:36:19;;;;;;;19.33;13.45;;;10.40;92.40;;;;;;5347662;26;20426;-80
2024/04/18 05:38:44;;;;;;;18.75;13.32;;;10.50;92.30;;;;;;5350746;26;20004;-80
2024/04/18 05:41:10;;;;;;;22.17;14.52;;;10.50;92.20;;;;;;5347014;26;20005;-80
2024/04/18 05:43:36;;;;;;;21.40;14.02;;;10.60;92.30;;;;;;5345330;26;20020;-80
2024/04/18 05:46:02;;;;;;;17.48;13.75;;;10.70;92.20;;;;;;5345736;26;20369;-80
2024/04/18 05:48:27;;;;;;;16.27;10.57;;;10.70;92.20;;;;;;5345977;26;20016;-80
2024/04/18 05:50:53;;;;;;;16.65;12.13;;;10.60;92.00;;;;;;5380879;26;20015;-80
2024/04/18 05:53:22;;;;;;;19.85;13.32;;;10.40;92.20;;;;;;5356909;26;20001;-79
2024/04/18 05:55:48;;;;;;;21.55;13.60;;;10.40;92.40;;;;;;5375222;26;20077;-79
2024/04/18 05:58:15;;;;;;;17.10;12.15;;;10.50;92.50;;;;;;5360394;26;20016;-80
2024/04/18 06:00:41;;;;;;;16.77;12.00;;;10.50;92.40;;;;;;5339770;26;20008;-80
2024/04/18 06:03:06;;;;;;;18.45;12.38;;;10.50;92.20;;;;;;5314558;26;20078;-80
2024/04/18 06:05:33;;;;;;;19.13;13.40;;;10.60;92.30;;;;;;5313821;26;20005;-80
2024/04/18 06:07:58;;;;;;;19.38;11.68;;;10.60;92.30;;;;;;5345031;26;20401;-80
2024/04/18 06:10:24;;;;;;;24.23;12.77;;;10.70;92.10;;;;;;5314318;26;20015;-79
2024/04/18 06:12:50;;;;;;;18.92;12.38;;;10.80;92.00;;;;;;5344505;26;20001;-79
2024/04/18 06:15:16;;;;;;;17.23;11.57;;;10.90;92.00;;;;;;5308447;26;20009;-80
2024/04/18 06:17:42;;;;;;;21.70;12.43;;;11.00;91.60;;;;;;5308984;26;20008;-80
2024/04/18 06:20:08;;;;;;;19.42;11.70;;;10.90;91.50;;;;;;5344799;26;20021;-80
2024/04/18 06:22:34;;;;;;;14.45;9.70;;;10.90;91.50;;;;;;5345748;26;20326;-80
2024/04/18 06:25:00;;;;;;;19.45;12.32;;;10.90;91.10;;;;;;5344662;26;20020;-79
2024/04/18 06:27:25;;;;;;;19.77;12.23;;;10.80;91.50;;;;;;5344901;26;20001;-80
2024/04/18 06:29:51;;;;;;;23.95;13.57;;;10.80;91.30;;;;;;5344136;26;20013;-80
2024/04/18 06:32:17;;;;;;;24.95;13.45;;;10.90;91.60;;;;;;5342427;26;20056;-81
2024/04/18 06:34:44;;;;;;;23.05;13.98;;;10.90;91.50;;;;;;5339035;26;20012;-79
2024/04/18 06:37:09;;;;;;;19.13;11.15;;;11.00;91.40;;;;;;5343240;26;20013;-79
2024/04/18 06:39:35;;;;;;;22.60;13.73;;;11.00;90.90;;;;;;5344614;26;20005;-81
2024/04/18 06:42:01;;;;;;;27.50;14.02;;;10.90;91.30;;;;;;5312126;26;20021;-81
2024/04/18 06:44:27;;;;;;;12.57;10.10;;;11.00;91.50;;;;;;5345276;26;20048;-77
2024/04/18 06:46:53;;;;;;;19.45;11.50;;;11.10;91.30;;;;;;5346430;26;20015;-78
2024/04/18 06:49:18;;;;;;;19.63;10.65;;;11.10;91.00;;;;;;5356233;26;20000;-79
2024/04/18 06:51:44;;;;;;;15.35;11.88;;;11.20;91.20;;;;;;5347084;26;20078;-79
2024/04/18 06:54:12;;;;;;;14.23;10.48;;;11.50;90.70;;;;;;5304596;26;20005;-79
2024/04/18 06:56:38;;;;;;;14.23;9.43;;;11.60;90.40;;;;;;5330346;26;20001;-79
2024/04/18 06:59:04;;;;;;;16.23;9.73;;;11.60;89.30;;;;;;5345284;26;20300;-80
2024/04/18 07:01:30;;;;;;;21.92;11.48;;;11.70;89.70;;;;;;5313934;26;20016;-79
2024/04/18 07:03:56;;;;;;;15.95;9.18;;;12.10;88.90;;;;;;5346374;26;20082;-79
2024/04/18 07:06:21;;;;;;;15.93;10.60;;;12.60;88.00;;;;;;5344094;26;20001;-79
2024/04/18 07:08:47;;;;;;;21.30;10.48;;;13.50;86.20;;;;;;5344596;26;20106;-80
2024/04/18 07:11:13;;;;;;;19.05;9.57;;;14.40;83.50;;;;;;5344794;26;20350;-81
2024/04/18 07:13:39;;;;;;;16.65;8.38;;;15.10;80.20;;;;;;5344320;26;20082;-80
2024/04/18 07:16:05;;;;;;;15.55;9.85;;;15.00;77.30;;;;;;5344603;26;20016;-80
2024/04/18 07:18:32;;;;;;;62.60;12.80;;;14.60;77.00;;;;;;5344163;26;20020;-80
2024/04/18 07:20:58;;;;;;;13.07;7.70;;;14.30;78.10;;;;;;5313098;26;20012;-80
2024/04/18 07:23:25;;;;;;;11.68;8.23;;;14.00;78.90;;;;;;5343667;26;20005;-78
2024/04/18 07:25:51;;;;;;;15.38;8.35;;;13.60;79.10;;;;;;5344262;26;20035;-76
2024/04/18 07:28:19;;;;;;;14.60;8.32;;;13.40;80.20;;;;;;5343550;26;20005;-80
2024/04/18 07:30:45;;;;;;;;;;;13.40;80.20;;;;;;5342900;26;20040;-79
2024/04/18 07:33:14;;;;;;;13.65;8.43;;;13.30;80.40;;;;;;5345059;26;19926;-79
2024/04/18 07:35:40;;;;;;;15.93;8.27;;;13.40;80.50;;;;;;5343598;26;20005;-81
2024/04/18 07:38:06;;;;;;;19.75;9.73;;;13.20;79.10;;;;;;5343576;26;20009;-81
2024/04/18 07:40:32;;;;;;;20.77;9.68;;;12.70;80.90;;;;;;5343553;26;20536;-78
2024/04/18 07:42:58;;;;;;;14.85;8.40;;;12.70;81.60;;;;;;5315260;26;20457;-81
2024/04/18 07:45:24;;;;;;;17.55;9.50;;;12.70;81.90;;;;;;5347839;26;20001;-79
2024/04/18 07:47:49;;;;;;;17.42;9.93;;;12.90;81.90;;;;;;5347677;26;20476;-79
2024/04/18 07:50:15;;;;;;;14.35;9.13;;;12.90;81.80;;;;;;5336984;26;20001;-78
2024/04/18 07:52:41;;;;;;;12.52;8.48;;;13.00;81.60;;;;;;5336216;26;20005;-79
2024/04/18 07:55:07;;;;;;;14.55;8.95;;;13.00;81.50;;;;;;5346815;26;20430;-78
2024/04/18 07:57:36;;;;;;;15.27;8.82;;;12.80;81.50;;;;;;5346744;26;20310;-79
2024/04/18 08:00:03;;;;;;;19.00;9.20;;;12.60;82.30;;;;;;5346051;26;20104;-78
2024/04/18 08:02:29;;;;;;;17.80;9.52;;;12.70;83.00;;;;;;5316087;26;20005;-80
2024/04/18 08:04:55;;;;;;;18.02;9.40;;;12.90;82.80;;;;;;5346212;26;20508;-78
2024/04/18 08:07:21;;;;;;;14.90;8.90;;;13.10;81.60;;;;;;5346948;26;20005;-80
2024/04/18 08:09:47;;;;;;;16.98;8.98;;;13.00;82.20;;;;;;5314644;26;20020;-79
2024/04/18 08:12:13;;;;;;;11.07;7.78;;;13.10;81.70;;;;;;5346216;26;20001;-79
2024/04/18 08:14:39;;;;;;;12.00;8.20;;;13.10;81.00;;;;;;5346639;26;20001;-79
2024/04/18 08:17:05;;;;;;;11.57;6.88;;;13.00;81.30;;;;;;5346341;26;20020;-78
2024/04/18 08:19:31;;;;;;;18.23;8.70;;;12.90;80.70;;;;;;5346995;26;20001;-78
2024/04/18 08:21:57;;;;;;;15.40;7.93;;;12.80;81.70;;;;;;5316117;26;20001;-79
2024/04/18 08:24:27;;;;;;;17.63;8.50;;;12.90;81.80;;;;;;5345057;26;20001;-76
2024/04/18 08:26:59;;;;;;;10.30;6.78;;;12.90;81.60;;;;;;5315947;26;20330;-77
2024/04/18 08:29:26;;;;;;;11.98;7.35;;;12.80;81.50;;;;;;5346181;26;20358;-77
2024/04/18 08:31:53;;;;;;;10.88;7.00;;;12.70;81.00;;;;;;5346287;26;20401;-78
2024/04/18 08:34:20;;;;;;;28.77;8.45;;;12.60;81.20;;;;;;5345414;26;20001;-77
2024/04/18 08:36:49;;;;;;;11.80;6.78;;;12.60;80.70;;;;;;5315998;26;20434;-77
2024/04/18 08:39:15;;;;;;;15.95;6.40;;;12.50;81.50;;;;;;5345967;26;20078;-78
2024/04/18 08:41:43;;;;;;;7.63;5.60;;;12.50;81.60;;;;;;5346117;26;20001;-78
2024/04/18 08:44:10;;;;;;;13.18;6.57;;;12.40;81.30;;;;;;5345135;26;20519;-79
2024/04/18 08:46:37;;;;;;;9.80;6.68;;;12.30;81.60;;;;;;5345763;26;20323;-78
2024/04/18 08:49:06;;;;;;;7.30;5.88;;;12.40;82.10;;;;;;5355193;26;20004;-79
2024/04/18 08:51:36;;;;;;;12.25;6.55;;;12.40;81.20;;;;;;5368754;26;20015;-79
2024/04/18 08:54:04;;;;;;;11.63;6.30;;;12.40;81.70;;;;;;5345828;26;20004;-79
2024/04/18 08:56:32;;;;;;;12.13;7.22;;;12.50;81.60;;;;;;5346248;26;20375;-78
2024/04/18 08:59:01;;;;;;;14.80;8.20;;;12.60;81.60;;;;;;5347099;26;20442;-80
2024/04/18 09:01:27;;;;;;;13.13;8.65;;;12.70;81.90;;;;;;5347035;26;20345;-80
2024/04/18 09:03:58;;;;;;;11.85;7.80;;;13.00;81.60;;;;;;5345852;26;20004;-80
2024/04/18 09:06:25;;;;;;;12.52;8.13;;;13.10;80.80;;;;;;5343782;26;20005;-79
2024/04/18 09:08:55;;;;;;;10.23;7.10;;;12.90;80.90;;;;;;5314682;26;20331;-79
2024/04/18 09:11:21;;;;;;;11.98;7.10;;;12.80;81.40;;;;;;5345592;26;20047;-79
2024/04/18 09:13:48;;;;;;;7.68;6.20;;;12.80;81.70;;;;;;5345867;26;20082;-80
2024/04/18 09:16:14;;;;;;;15.10;7.35;;;12.90;80.60;;;;;;5315969;26;20028;-78
2024/04/18 09:18:40;;;;;;;10.77;6.85;;;13.00;80.80;;;;;;5315304;26;20001;-79
2024/04/18 09:21:10;;;;;;;8.82;6.65;;;12.90;81.10;;;;;;5345846;26;20404;-79
2024/04/18 09:23:37;;;;;;;13.00;7.53;;;12.90;81.40;;;;;;5345641;26;20011;-80
2024/04/18 09:26:06;;;;;;;9.65;6.50;;;12.80;81.70;;;;;;5344995;26;20001;-79
2024/04/18 09:28:33;;;;;;;12.30;6.70;;;12.60;81.80;;;;;;5346201;26;20380;-79
2024/04/18 09:30:59;;;;;;;20.40;7.40;;;12.60;81.10;;;;;;5342382;26;20015;-79
2024/04/18 09:33:27;;;;;;;12.73;7.70;;;12.50;81.40;;;;;;5315053;26;20048;-79
2024/04/18 09:35:59;;;;;;;13.38;6.03;;;12.60;81.50;;;;;;5313641;26;20511;-80
2024/04/18 09:38:32;;;;;;;14.25;6.80;;;12.60;80.90;;;;;;5343310;26;20005;-79
2024/04/18 09:41:12;;;;;;;14.93;6.10;;;12.80;80.50;;;;;;5333740;26;20002;-80
2024/04/18 09:44:14;;;;;;;9.98;6.30;;;12.70;80.70;;;;;;5339073;26;20005;-79
2024/04/18 09:46:43;;;;;;;8.57;4.47;;;12.70;80.80;;;;;;5344662;26;20013;-80
2024/04/18 09:49:10;;;;;;;10.25;4.80;;;12.60;79.90;;;;;;5325807;26;20000;-79
2024/04/18 09:51:36;;;;;;;10.68;5.32;;;12.60;79.90;;;;;;5380192;26;20015;-78
2024/04/18 09:54:03;;;;;;;9.88;4.57;;;12.50;80.00;;;;;;5347734;26;20021;-78
2024/04/18 09:56:32;;;;;;;8.38;4.15;;;12.50;80.40;;;;;;5345086;26;20013;-77
2024/04/18 09:58:59;;;;;;;5.82;4.25;;;12.30;81.10;;;;;;5345100;26;20082;-79
2024/04/18 10:01:25;;;;;;;8.68;5.35;;;12.00;81.80;;;;;;5345555;26;20001;-79
2024/04/18 10:03:54;;;;;;;9.18;7.03;;;11.50;85.10;;;;;;5346045;26;20342;-79
2024/04/18 10:06:25;;;;;;;5.25;3.63;;;11.20;87.50;;;;;;5313966;26;20016;-78
2024/04/18 10:08:52;;;;;;;5.28;4.30;;;11.00;87.00;;;;;;5344676;26;20005;-77
2024/04/18 10:11:21;;;;;;;11.98;5.70;;;10.90;88.00;;;;;;5345629;26;20071;-79
2024/04/18 10:13:47;;;;;;;11.90;5.15;;;10.80;89.20;;;;;;5345777;26;20556;-78
2024/04/18 10:16:14;;;;;;;8.77;4.90;;;10.80;89.20;;;;;;5345393;26;20001;-79
2024/04/18 10:18:46;;;;;;;8.98;4.70;;;10.90;88.60;;;;;;5346057;26;20088;-79
2024/04/18 10:21:13;;;;;;;5.55;4.13;;;11.00;88.60;;;;;;5346540;26;20008;-80
2024/04/18 10:23:47;;;;;;;6.85;5.20;;;11.10;88.50;;;;;;5345843;26;20020;-80
2024/04/18 10:26:17;;;;;;;7.80;6.03;;;10.90;88.60;;;;;;5344532;26;19996;-79
2024/04/18 10:28:44;;;;;;;9.32;4.88;;;10.90;90.30;;;;;;5344964;26;20009;-79
2024/04/18 10:31:11;;;;;;;10.00;4.18;;;10.90;90.30;;;;;;5313712;26;20015;-79
2024/04/18 10:33:38;;;;;;;5.90;4.78;;;10.70;89.40;;;;;;5344556;26;20005;-78
2024/04/18 10:36:14;;;;;;;8.93;4.57;;;10.60;90.60;;;;;;5343673;26;20005;-78
2024/04/18 10:38:44;;;;;;;11.80;5.43;;;10.40;90.80;;;;;;5343354;26;20037;-79
2024/04/18 10:41:13;;;;;;;7.30;2.95;;;10.30;91.70;;;;;;5344791;26;20019;-78
2024/04/18 10:43:40;;;;;;;10.77;3.55;;;10.20;88.90;;;;;;5344508;26;20020;-79
2024/04/18 10:46:10;;;;;;;6.65;3.45;;;10.00;90.40;;;;;;5314003;26;20017;-77
2024/04/18 10:48:41;;;;;;;5.15;3.03;;;9.80;91.00;;;;;;5346908;26;20041;-79
2024/04/18 10:51:07;;;;;;;6.57;3.60;;;9.70;90.90;;;;;;5360245;26;20016;-78
2024/04/18 10:53:35;;;;;;;6.35;4.28;;;9.70;91.20;;;;;;5344751;26;20012;-78
2024/04/18 10:56:01;;;;;;;12.00;4.10;;;9.80;91.60;;;;;;5313044;26;19996;-78
2024/04/18 10:58:30;;;;;;;6.45;4.28;;;9.90;91.60;;;;;;5342621;26;20015;-78
2024/04/18 11:01:04;;;;;;;6.60;4.30;;;10.00;91.70;;;;;;5344604;26;20001;-79
2024/04/18 11:03:31;;;;;;;4.88;3.22;;;10.10;92.00;;;;;;5344386;26;20434;-78
2024/04/18 11:05:59;;;;;;;7.50;3.67;;;10.30;91.00;;;;;;5343747;26;20005;-78
2024/04/18 11:08:25;;;;;;;3.85;2.40;;;10.40;91.00;;;;;;5343833;26;20001;-78
2024/04/18 11:10:51;;;;;;;5.50;3.38;;;10.50;90.60;;;;;;5313558;26;20370;-78
2024/04/18 11:13:18;;;;;;;6.15;2.58;;;10.50;89.80;;;;;;5344254;26;20349;-78
2024/04/18 11:15:44;;;;;;;7.40;2.63;;;10.50;88.80;;;;;;5343844;26;20001;-78
2024/04/18 11:18:10;;;;;;;5.28;2.90;;;10.50;88.00;;;;;;5345992;26;20001;-78
2024/04/18 11:20:36;;;;;;;4.75;3.05;;;10.40;87.80;;;;;;5347343;26;20220;-78
2024/04/18 11:23:06;;;;;;;6.63;3.35;;;10.50;89.50;;;;;;5347421;26;20005;-80
2024/04/18 11:25:32;;;;;;;6.05;3.15;;;10.50;89.60;;;;;;5316663;26;20078;-79
2024/04/18 11:27:58;;;;;;;5.63;3.25;;;10.50;89.90;;;;;;5317024;26;20001;-79
2024/04/18 11:30:26;;;;;;;4.85;3.65;;;10.60;90.10;;;;;;5348523;26;20005;-81
2024/04/18 11:32:56;;;;;;;7.72;3.20;;;10.70;89.90;;;;;;5343651;26;20001;-79
2024/04/18 11:35:22;;;;;;;6.43;3.97;;;10.70;90.10;;;;;;5353558;26;20037;-81
2024/04/18 11:37:51;;;;;;;6.88;4.10;;;10.70;90.30;;;;;;5341257;26;20048;-79
2024/04/18 11:40:17;;;;;;;5.25;3.83;;;10.60;90.60;;;;;;5315099;26;20001;-79
2024/04/18 11:42:43;;;;;;;7.28;3.70;;;10.40;90.70;;;;;;5344684;26;20082;-77
2024/04/18 11:45:09;;;;;;;7.57;3.80;;;10.30;91.00;;;;;;5347584;26;20082;-77
2024/04/18 11:47:38;;;;;;;7.53;3.97;;;10.30;91.20;;;;;;5316964;26;20450;-78
2024/04/18 11:50:07;;;;;;;5.43;4.15;;;10.30;91.60;;;;;;5371394;26;20000;-79
2024/04/18 11:52:33;;;;;;;5.78;3.95;;;10.40;91.70;;;;;;5325649;26;20021;-79
2024/04/18 11:54:59;;;;;;;3.72;2.60;;;10.30;91.50;;;;;;5359821;26;20013;-78
2024/04/18 11:57:25;;;;;;;7.38;4.32;;;10.30;91.30;;;;;;5353681;26;20000;-78
2024/04/18 11:59:51;;;;;;;10.68;4.35;;;10.20;91.40;;;;;;5350293;26;20005;-80
2024/04/18 12:02:17;;;;;;;7.70;4.57;;;10.20;92.00;;;;;;5350524;26;20005;-78
2024/04/18 12:04:43;;;;;;;5.32;3.65;;;10.10;92.40;;;;;;5320151;26;20016;-78
2024/04/18 12:07:09;;;;;;;4.65;3.47;;;10.10;92.50;;;;;;5318764;26;20015;-76
2024/04/18 12:09:42;;;;;;;8.45;4.22;;;9.90;92.60;;;;;;5365058;26;20004;-79
2024/04/18 12:12:08;;;;;;;6.75;5.68;;;9.80;92.90;;;;;;5315869;26;20327;-78
2024/04/18 12:14:37;;;;;;;5.72;4.55;;;9.90;93.40;;;;;;5345976;26;20445;-78
2024/04/18 12:17:05;;;;;;;5.97;3.33;;;9.80;93.70;;;;;;5347512;26;20013;-79
2024/04/18 12:19:31;;;;;;;6.85;4.63;;;9.70;94.10;;;;;;5347426;26;20012;-78
2024/04/18 12:21:57;;;;;;;8.45;5.25;;;9.60;94.40;;;;;;5346679;26;20350;-78
2024/04/18 12:24:23;;;;;;;7.40;4.90;;;9.40;94.80;;;;;;5346903;26;20090;-78
2024/04/18 12:26:49;;;;;;;7.10;4.38;;;9.40;95.30;;;;;;5346487;26;20405;-78
2024/04/18 12:29:14;;;;;;;6.28;4.85;;;9.20;95.70;;;;;;5345808;26;20051;-78
2024/04/18 12:31:40;;;;;;;8.57;6.00;;;9.00;96.80;;;;;;5316190;26;20001;-79
2024/04/18 12:34:06;;;;;;;7.95;5.72;;;8.90;97.30;;;;;;5345850;26;20033;-79
2024/04/18 12:36:34;;;;;;;9.75;5.25;;;8.70;97.80;;;;;;5346825;26;20001;-79
2024/04/18 12:39:00;;;;;;;7.32;5.47;;;8.60;98.10;;;;;;5347380;26;20346;-79